Kortenaken, Belgium
Current Conditions -  °F | °C
As of 12:03 AM on Friday 28 Nov 2014 (Local Time) from EBDT Reporting Station
Scattered Clouds Scattered Clouds  
Wind Chill: 44°   Ceiling: Unl
Heat Index: 46°   Visibility: 2.8mi
Dew Point: 45°   Wind: 5mph
Humidity: 93%   Direction: 110°ESE
Pressure: 29.68"   Gusts: NA
Location:  50.91°N, 5.06°E
Report Text: EBDT 272303Z AUTO 11004KT 4500 SCT038/// 08/07 Q1005 GRN
Loading
Personal Weather Stations






























Interactive Weather Map New forecast layout! Learn more

10-Day Weather Forecast

Advertisements
Track Severe Weather on mobile